首页
METAR-TAF:

METAR-TAF

机场 :

Pellston Regional Airport of Emmet County

Pellston, 密歇根州, 美国

纬度: 45-34-15N, 经度: 084-47-48W, 海拔: 220米

当前天气观测

该预报发布于45分钟前的23:54 UTC
风速6节,风向东转东南
温度 23°C
湿度 83%
气压 1015 hPa
能見度: 16.1公里
多云层高于5500英尺
阴天层高于7500英尺

METAR: KPLN 252354Z AUTO 12006KT 10SM BKN055 OVC075 23/20 A2996 RMK AO2 SLP144 60013 T02280200 10294 20211 55003

时间: 20:39 (00:39 UTC)

预报

该预报发布于1小时和18分钟前的23:21 UTC
预报有效从26日的 00点(UTC)到 26日的 24点(UTC)
风速3节,风向多变
能見度: 10公里
多云层高于12000英尺
从 26日的 0200点(UTC)
风速节,风向
能見度: 10公里
散云层高于18000英尺
从 26日的 0400点(UTC)
风速节,风向
能見度: 1.6公里
散云层高于400英尺
多云层高于15000英尺
轻雾
从 26日的 1300点(UTC)
风速3节,风向多变
能見度: 10公里
少量云层高于3500英尺
从 26日的 1600点(UTC)
风速5节,风向西南
能見度: 10公里
散云层高于5000英尺

TAF: KPLN 252321Z 2600/2624 VRB03KT P6SM BKN120 FM260200 00000KT P6SM SCT180 FM260400 00000KT 1SM BR SCT004 BKN150 FM261300 VRB03KT P6SM FEW035 FM261600 23005KT P6SM SCT050

超过4000个机场的气象观测和天气预报(METAR&TAF报告)。

可查询的气象台以黄色和红色小点在地图上表示。

将鼠标移到小点上方,可查看气象台名称。

然后点击查看天气观测和预报。

如需切换地图:点击带黑十字的绿色按钮放大地图;点击带横线的绿色按钮缩小地图;或者点击绿色箭头查看邻近地区的地图。


METAR-TAF: